Time;durP1;ratioP1;P1;durP2;ratioP2;P2;SDS_P1;SDS_P2;PMS_P1;PMS_P2;Temp;Humidity;BMP_temperature;BMP_pressure;BME280_temperature;BME280_humidity;BME280_pressure;Samples;Min_cycle;Max_cycle;Signal;HPM_P1;HPM_P2
2022/08/03 00:00:06;;;;;;;6.30;2.20;;;20.40;73.50;;;;;;5038322;28;20456;-59
2022/08/03 00:02:32;;;;;;;4.93;2.38;;;20.40;70.30;;;;;;5038139;28;20029;-59
2022/08/03 00:04:57;;;;;;;6.28;2.28;;;20.40;70.60;;;;;;5045717;28;20082;-59
2022/08/03 00:07:23;;;;;;;6.28;2.70;;;20.30;72.40;;;;;;5040059;28;20040;-58
2022/08/03 00:09:49;;;;;;;7.38;2.58;;;20.30;71.60;;;;;;5038401;28;20021;-59
2022/08/03 00:12:15;;;;;;;8.13;2.65;;;20.20;71.80;;;;;;5038175;28;20393;-59
2022/08/03 00:14:41;;;;;;;8.30;2.72;;;20.20;71.80;;;;;;5037966;28;20040;-59
2022/08/03 00:17:07;;;;;;;7.07;2.67;;;20.30;71.00;;;;;;5038181;28;20048;-59
2022/08/03 00:19:32;;;;;;;6.47;2.47;;;20.30;73.50;;;;;;5038045;28;20032;-59
2022/08/03 00:21:58;;;;;;;6.50;2.53;;;20.20;74.00;;;;;;5049045;28;20135;-59
2022/08/03 00:24:24;;;;;;;7.03;2.50;;;20.20;74.30;;;;;;5040588;28;20017;-59
2022/08/03 00:26:50;;;;;;;7.18;2.78;;;20.20;73.30;;;;;;5037885;28;20443;-59
2022/08/03 00:29:16;;;;;;;8.27;2.80;;;20.20;73.50;;;;;;5037327;28;20025;-59
2022/08/03 00:31:42;;;;;;;6.25;2.40;;;20.20;74.40;;;;;;5037364;28;20032;-59
2022/08/03 00:34:08;;;;;;;6.85;2.80;;;20.20;74.40;;;;;;5037771;28;20029;-59
2022/08/03 00:36:33;;;;;;;5.80;2.88;;;20.10;74.40;;;;;;5037928;28;20026;-59
2022/08/03 00:38:59;;;;;;;7.65;2.30;;;20.10;73.80;;;;;;5038012;28;20386;-59
2022/08/03 00:41:25;;;;;;;7.43;2.38;;;20.10;74.20;;;;;;5048553;28;20021;-59
2022/08/03 00:43:51;;;;;;;5.47;2.65;;;20.10;74.30;;;;;;5037603;28;20022;-58
2022/08/03 00:46:16;;;;;;;6.57;3.00;;;20.00;71.50;;;;;;5037765;28;20075;-58
2022/08/03 00:48:42;;;;;;;6.38;2.55;;;19.90;72.50;;;;;;5044442;28;20037;-59
2022/08/03 00:51:08;;;;;;;4.45;2.22;;;19.90;72.60;;;;;;5057705;28;20434;-59
2022/08/03 00:53:35;;;;;;;6.68;2.10;;;19.90;73.40;;;;;;5057872;28;20029;-59
2022/08/03 00:56:00;;;;;;;7.07;2.53;;;19.90;72.20;;;;;;5051889;28;20071;-59
2022/08/03 00:58:26;;;;;;;7.53;2.35;;;19.80;73.10;;;;;;5040708;28;20029;-59
2022/08/03 01:00:52;;;;;;;7.25;2.83;;;19.80;72.50;;;;;;5045362;28;20032;-59
2022/08/03 01:03:18;;;;;;;9.02;2.75;;;19.80;72.60;;;;;;5057562;28;20028;-58
2022/08/03 01:06:29;;;;;;;10.75;3.03;;;19.70;73.50;;;;;;5057303;28;20021;-59
2022/08/03 01:09:14;;;;;;;5.43;2.63;;;19.70;73.00;;;;;;5054433;28;20064;-59
2022/08/03 01:11:58;;;;;;;9.55;3.00;;;19.60;73.00;;;;;;5057297;28;20031;-59
2022/08/03 01:14:40;;;;;;;8.45;2.67;;;19.50;72.50;;;;;;5048981;28;20112;-59
2022/08/03 01:17:26;;;;;;;4.78;2.53;;;19.40;72.30;;;;;;5019296;28;20029;-59
2022/08/03 01:20:01;;;;;;;6.80;2.80;;;19.40;73.60;;;;;;5037372;28;20033;-59
2022/08/03 01:23:04;;;;;;;6.85;2.60;;;19.40;75.10;;;;;;5045734;28;20108;-59
2022/08/03 01:26:07;;;;;;;6.50;2.65;;;19.30;75.40;;;;;;5057042;28;20036;-59
2022/08/03 01:28:58;;;;;;;6.45;2.70;;;19.30;76.10;;;;;;5054635;28;20086;-59
2022/08/03 01:31:37;;;;;;;6.72;2.90;;;19.30;75.30;;;;;;5049288;28;20032;-58
2022/08/03 01:34:07;;;;;;;7.57;2.65;;;19.30;75.70;;;;;;5019116;28;20033;-59
2022/08/03 01:36:37;;;;;;;6.85;2.80;;;19.30;73.90;;;;;;5037179;28;20037;-58
2022/08/03 01:39:08;;;;;;;10.40;2.60;;;19.20;76.90;;;;;;5019232;28;20036;-59
2022/08/03 01:41:43;;;;;;;8.18;2.90;;;19.20;75.50;;;;;;5039086;28;20405;-58
2022/08/03 01:44:11;;;;;;;7.18;2.65;;;19.20;74.60;;;;;;5042228;28;20021;-59
2022/08/03 01:46:39;;;;;;;7.28;2.83;;;19.20;74.10;;;;;;5040814;28;20037;-59
2022/08/03 01:49:09;;;;;;;7.05;2.58;;;19.20;73.30;;;;;;5052496;28;20029;-59
2022/08/03 01:51:38;;;;;;;7.03;2.75;;;19.20;75.50;;;;;;5021290;28;20033;-58
2022/08/03 01:54:06;;;;;;;7.20;2.85;;;19.20;76.70;;;;;;5021139;28;20100;-58
2022/08/03 01:56:33;;;;;;;7.68;3.13;;;19.20;77.50;;;;;;5030821;28;20037;-59
2022/08/03 01:59:01;;;;;;;6.38;2.90;;;19.10;75.70;;;;;;5043184;28;20036;-59
2022/08/03 02:01:28;;;;;;;6.63;2.88;;;19.10;74.40;;;;;;5060594;28;20032;-58
2022/08/03 02:03:57;;;;;;;6.60;2.60;;;19.10;76.70;;;;;;5050161;28;20044;-59
2022/08/03 02:06:26;;;;;;;8.23;3.08;;;19.10;77.30;;;;;;5052283;28;20393;-59
2022/08/03 02:08:52;;;;;;;7.97;2.78;;;19.10;77.80;;;;;;5041202;28;20017;-58
2022/08/03 02:11:18;;;;;;;6.57;2.72;;;19.10;76.60;;;;;;5059357;28;20500;-59
2022/08/03 02:13:46;;;;;;;6.55;3.03;;;19.00;78.10;;;;;;5060366;28;20025;-58
2022/08/03 02:16:13;;;;;;;8.40;2.80;;;19.00;78.20;;;;;;5055525;28;20476;-59
2022/08/03 02:18:41;;;;;;;7.53;2.80;;;19.00;74.90;;;;;;5059368;28;20032;-58
2022/08/03 02:21:09;;;;;;;7.70;3.00;;;19.00;77.90;;;;;;5059951;28;20037;-59
2022/08/03 02:23:36;;;;;;;11.45;3.30;;;18.90;77.20;;;;;;5045167;28;20021;-58
2022/08/03 02:26:05;;;;;;;9.80;2.90;;;18.90;77.00;;;;;;5040190;28;20099;-58
2022/08/03 02:28:36;;;;;;;8.27;2.47;;;18.90;76.30;;;;;;5040294;28;20380;-59
2022/08/03 02:31:05;;;;;;;6.97;3.00;;;18.90;77.50;;;;;;5043977;28;20079;-59
2022/08/03 02:33:36;;;;;;;6.75;3.03;;;18.90;76.90;;;;;;5042030;28;20028;-58
2022/08/03 02:36:03;;;;;;;9.02;3.28;;;18.80;76.50;;;;;;5059690;28;20036;-58
2022/08/03 02:38:35;;;;;;;7.20;3.13;;;18.80;77.80;;;;;;5048652;28;20024;-59
2022/08/03 02:41:06;;;;;;;8.10;2.92;;;18.80;78.10;;;;;;5042754;28;20473;-58
2022/08/03 02:43:35;;;;;;;11.93;3.20;;;18.80;76.60;;;;;;5040317;28;20349;-59
2022/08/03 02:46:00;;;;;;;9.63;3.33;;;18.70;78.40;;;;;;5039690;28;20030;-59
2022/08/03 02:48:30;;;;;;;7.65;2.90;;;18.80;76.70;;;;;;5050736;28;20139;-59
2022/08/03 02:50:58;;;;;;;9.38;3.28;;;18.70;78.90;;;;;;5059653;28;20025;-59
2022/08/03 02:53:25;;;;;;;7.10;2.80;;;18.70;79.40;;;;;;5058731;28;20032;-59
2022/08/03 02:55:52;;;;;;;11.57;3.22;;;18.80;79.40;;;;;;5047342;28;20039;-59
2022/08/03 02:58:22;;;;;;;7.53;2.45;;;18.80;77.60;;;;;;5050397;28;20020;-59
2022/08/03 03:00:50;;;;;;;7.43;2.83;;;18.70;79.50;;;;;;5039568;28;20030;-59
2022/08/03 03:03:17;;;;;;;7.57;2.75;;;18.70;79.10;;;;;;5039318;28;20029;-58
2022/08/03 03:05:44;;;;;;;8.95;3.17;;;18.70;78.50;;;;;;5047888;28;20036;-59
2022/08/03 03:08:15;;;;;;;9.13;3.75;;;18.60;78.80;;;;;;5059183;28;20090;-59
2022/08/03 03:10:42;;;;;;;7.93;3.15;;;18.60;78.00;;;;;;5059500;28;20488;-59
2022/08/03 03:13:08;;;;;;;9.02;3.35;;;18.60;78.30;;;;;;5057616;28;20429;-59
2022/08/03 03:15:36;;;;;;;7.93;3.10;;;18.60;78.20;;;;;;5040158;28;20030;-59
2022/08/03 03:18:02;;;;;;;7.03;3.25;;;18.60;80.10;;;;;;5038998;28;20517;-59
2022/08/03 03:20:31;;;;;;;7.97;3.30;;;18.50;79.90;;;;;;5039350;28;20017;-59
2022/08/03 03:22:59;;;;;;;10.15;3.25;;;18.50;79.80;;;;;;5038860;28;20040;-58
2022/08/03 03:25:25;;;;;;;9.40;2.95;;;18.50;79.30;;;;;;5039075;28;20101;-58
2022/08/03 03:27:51;;;;;;;7.15;2.97;;;18.50;79.00;;;;;;5039036;28;20037;-58
2022/08/03 03:30:17;;;;;;;8.68;3.05;;;18.50;78.60;;;;;;5049591;28;20397;-59
2022/08/03 03:32:44;;;;;;;10.88;3.63;;;18.50;80.30;;;;;;5038784;28;20827;-58
2022/08/03 03:35:10;;;;;;;9.45;2.92;;;18.50;78.10;;;;;;5039373;28;20018;-58
2022/08/03 03:37:36;;;;;;;8.48;2.70;;;18.40;80.30;;;;;;5038751;28;20034;-58
2022/08/03 03:40:02;;;;;;;9.40;3.80;;;18.40;79.20;;;;;;5039389;28;20026;-59
2022/08/03 03:42:29;;;;;;;8.50;3.15;;;18.40;77.60;;;;;;5038895;28;20025;-59
2022/08/03 03:44:55;;;;;;;8.20;2.75;;;18.40;79.20;;;;;;5039330;28;20053;-59
2022/08/03 03:47:20;;;;;;;9.18;3.20;;;18.40;79.80;;;;;;5056806;28;20025;-59
2022/08/03 03:49:46;;;;;;;9.35;3.30;;;18.30;80.50;;;;;;5039049;28;20026;-58
2022/08/03 03:52:12;;;;;;;8.20;3.50;;;18.30;80.70;;;;;;5038791;28;20072;-59
2022/08/03 03:54:42;;;;;;;10.05;3.65;;;18.30;78.50;;;;;;5020716;28;20032;-57
2022/08/03 03:57:10;;;;;;;7.65;3.47;;;18.30;78.60;;;;;;5038158;28;20089;-59
2022/08/03 03:59:40;;;;;;;8.40;3.05;;;18.20;81.60;;;;;;5038622;28;20025;-59
2022/08/03 04:02:07;;;;;;;7.22;3.10;;;18.20;81.10;;;;;;5038200;28;20440;-59
2022/08/03 04:12:55;;;;;;;8.57;2.88;;;18.10;79.40;;;;;;5041962;28;20447;-58
2022/08/03 04:15:22;;;;;;;8.20;3.40;;;18.10;79.70;;;;;;5058027;28;20067;-59
2022/08/03 04:17:49;;;;;;;8.90;3.15;;;18.00;78.90;;;;;;5058007;28;20036;-58
2022/08/03 04:20:19;;;;;;;7.70;2.70;;;18.00;78.30;;;;;;5054924;28;20025;-58
2022/08/03 04:22:48;;;;;;;8.48;2.67;;;17.90;79.30;;;;;;5046462;28;20159;-58
2022/08/03 04:25:18;;;;;;;8.38;2.63;;;17.90;79.10;;;;;;5052639;28;20488;-59
2022/08/03 04:27:45;;;;;;;6.68;2.75;;;17.90;80.10;;;;;;5058015;28;20075;-59
2022/08/03 04:30:11;;;;;;;7.88;2.78;;;17.80;77.50;;;;;;5036796;28;20033;-59
2022/08/03 04:32:38;;;;;;;8.50;2.90;;;17.80;79.50;;;;;;5037513;28;20084;-58
2022/08/03 04:35:06;;;;;;;8.70;3.03;;;17.70;80.10;;;;;;5037985;28;20108;-58
2022/08/03 04:37:41;;;;;;;9.13;2.88;;;17.70;80.20;;;;;;5040850;28;20028;-58
2022/08/03 04:40:10;;;;;;;8.43;3.00;;;17.70;77.50;;;;;;5025861;28;20048;-58
2022/08/03 04:42:38;;;;;;;8.50;3.30;;;17.70;79.50;;;;;;5037837;28;20026;-58
2022/08/03 04:45:05;;;;;;;7.10;3.03;;;17.60;77.60;;;;;;5037722;28;20018;-58
2022/08/03 04:47:35;;;;;;;9.55;3.33;;;17.60;78.30;;;;;;5037212;28;20025;-58
2022/08/03 04:50:02;;;;;;;6.25;3.33;;;17.60;80.60;;;;;;5037695;28;20040;-58
2022/08/03 04:52:29;;;;;;;8.63;2.72;;;17.60;78.50;;;;;;5037293;28;20101;-58
2022/08/03 04:54:55;;;;;;;9.68;3.25;;;17.60;78.90;;;;;;5037524;28;20060;-58
2022/08/03 04:57:21;;;;;;;10.52;3.35;;;17.60;79.30;;;;;;5049292;28;20021;-59
2022/08/03 04:59:51;;;;;;;7.40;3.00;;;17.60;80.00;;;;;;5037518;28;20459;-59
2022/08/03 05:02:17;;;;;;;8.63;3.10;;;17.60;80.30;;;;;;5037305;28;20032;-59
2022/08/03 05:04:45;;;;;;;10.15;2.97;;;17.60;79.60;;;;;;5048159;28;20037;-58
2022/08/03 05:07:12;;;;;;;8.98;3.72;;;17.60;80.90;;;;;;5057269;28;20041;-58
2022/08/03 05:09:38;;;;;;;6.72;3.10;;;17.60;78.30;;;;;;5057320;28;20491;-58
2022/08/03 05:12:05;;;;;;;7.70;3.33;;;17.60;81.50;;;;;;5037809;28;20026;-58
2022/08/03 05:14:38;;;;;;;9.82;4.18;;;17.60;81.20;;;;;;5049159;28;20037;-59
2022/08/03 05:17:05;;;;;;;7.40;3.00;;;17.70;81.70;;;;;;5036649;28;20080;-59
2022/08/03 05:19:31;;;;;;;6.70;2.97;;;17.80;84.10;;;;;;5037667;28;20033;-58
2022/08/03 05:21:57;;;;;;;6.90;2.85;;;17.80;84.40;;;;;;5037778;28;20029;-59
2022/08/03 05:24:23;;;;;;;8.93;3.00;;;17.90;81.20;;;;;;5037473;28;20060;-59
2022/08/03 05:26:48;;;;;;;6.35;3.00;;;17.90;83.60;;;;;;5037475;28;20029;-58
2022/08/03 05:29:14;;;;;;;7.07;2.90;;;18.00;83.60;;;;;;5037640;28;20029;-58
2022/08/03 05:31:40;;;;;;;9.38;3.30;;;18.00;82.40;;;;;;5049282;28;20034;-58
2022/08/03 05:34:06;;;;;;;8.27;3.38;;;18.00;80.00;;;;;;5037181;28;20029;-58
2022/08/03 05:36:31;;;;;;;10.43;3.40;;;18.10;82.00;;;;;;5037246;28;20033;-58
2022/08/03 05:38:57;;;;;;;11.40;3.47;;;18.10;82.30;;;;;;5042994;28;20028;-58
2022/08/03 05:41:23;;;;;;;11.60;3.50;;;18.10;81.80;;;;;;5057022;28;20040;-58
2022/08/03 05:43:50;;;;;;;9.65;3.13;;;18.10;81.50;;;;;;5056049;28;20046;-58
2022/08/03 05:46:16;;;;;;;8.30;3.10;;;18.20;81.70;;;;;;5042200;28;20431;-59
2022/08/03 05:48:42;;;;;;;7.90;3.45;;;18.20;81.50;;;;;;5048790;28;20029;-59
2022/08/03 05:51:09;;;;;;;7.93;3.20;;;18.20;81.30;;;;;;5036676;28;20484;-58
2022/08/03 05:53:36;;;;;;;7.75;2.85;;;18.20;82.00;;;;;;5037080;28;20565;-58
2022/08/03 05:56:02;;;;;;;13.18;3.42;;;18.30;81.10;;;;;;5019015;28;20498;-58
2022/08/03 05:58:28;;;;;;;6.03;3.00;;;18.30;79.70;;;;;;5036984;28;20025;-58
2022/08/03 06:00:54;;;;;;;8.40;3.22;;;18.40;80.50;;;;;;5037286;28;20052;-58
2022/08/03 06:03:19;;;;;;;10.02;3.50;;;18.40;81.50;;;;;;5036785;28;20025;-59
2022/08/03 06:05:45;;;;;;;14.02;3.67;;;18.50;80.80;;;;;;5048710;28;20032;-58
2022/08/03 06:08:12;;;;;;;10.25;3.63;;;18.50;80.10;;;;;;5036432;28;20116;-58
2022/08/03 06:10:38;;;;;;;10.05;3.90;;;18.60;79.20;;;;;;5036440;28;20382;-58
2022/08/03 06:13:04;;;;;;;8.05;3.38;;;18.70;80.80;;;;;;5035949;28;20504;-58
2022/08/03 06:15:32;;;;;;;10.50;3.53;;;18.70;78.90;;;;;;5038351;28;20037;-59
2022/08/03 06:17:58;;;;;;;8.68;3.20;;;18.80;78.80;;;;;;5046810;28;20057;-59
2022/08/03 06:20:24;;;;;;;8.32;3.28;;;18.80;78.70;;;;;;5036774;28;20457;-59
2022/08/03 06:22:50;;;;;;;10.43;3.47;;;18.80;79.10;;;;;;5036499;28;20059;-64
2022/08/03 06:25:18;;;;;;;11.45;3.40;;;18.90;80.60;;;;;;5036491;28;20370;-64
2022/08/03 06:27:44;;;;;;;9.93;3.60;;;18.90;78.80;;;;;;5037436;28;20093;-64
2022/08/03 06:30:11;;;;;;;9.00;3.63;;;18.90;80.40;;;;;;5039613;28;20528;-64
2022/08/03 06:32:41;;;;;;;8.43;3.13;;;18.90;80.00;;;;;;5039502;28;20110;-64
2022/08/03 06:35:08;;;;;;;8.32;3.03;;;19.00;79.70;;;;;;5038512;28;20033;-64
2022/08/03 06:37:44;;;;;;;12.15;3.30;;;19.00;79.60;;;;;;5038831;28;20026;-64
2022/08/03 06:40:12;;;;;;;13.65;3.45;;;19.00;78.70;;;;;;5057754;28;20029;-64
2022/08/03 06:42:38;;;;;;;10.70;3.25;;;19.00;80.50;;;;;;5052277;28;20051;-64
2022/08/03 06:45:05;;;;;;;10.93;3.50;;;19.10;80.40;;;;;;5052880;28;20092;-64
2022/08/03 06:47:31;;;;;;;7.10;3.08;;;19.10;80.50;;;;;;5025603;28;20025;-64
2022/08/03 06:49:57;;;;;;;12.00;3.47;;;19.10;79.40;;;;;;5041807;28;20032;-64
2022/08/03 06:52:23;;;;;;;10.10;3.22;;;19.10;80.20;;;;;;5048639;28;20032;-65
2022/08/03 06:54:49;;;;;;;12.40;3.72;;;19.10;80.50;;;;;;5051316;28;20031;-65
2022/08/03 06:57:15;;;;;;;12.40;3.53;;;19.00;80.70;;;;;;5046684;28;20543;-67
2022/08/03 06:59:41;;;;;;;8.27;3.10;;;19.00;80.90;;;;;;5049667;28;20037;-64
2022/08/03 07:02:08;;;;;;;8.93;2.90;;;19.00;81.20;;;;;;5042560;28;20040;-67
2022/08/03 07:04:34;;;;;;;8.05;2.83;;;19.10;82.20;;;;;;5049547;28;20388;-62
2022/08/03 07:07:00;;;;;;;9.70;3.15;;;19.10;83.20;;;;;;5039909;28;20044;-59
2022/08/03 07:09:26;;;;;;;11.00;3.30;;;19.10;83.80;;;;;;5040054;28;20029;-62
2022/08/03 07:11:53;;;;;;;9.70;3.47;;;19.20;82.80;;;;;;5039773;28;20037;-64
2022/08/03 07:14:20;;;;;;;9.63;3.75;;;19.20;84.40;;;;;;5041754;28;20029;-62
2022/08/03 07:16:45;;;;;;;7.90;3.00;;;19.30;81.60;;;;;;5047570;28;20097;-62
2022/08/03 07:19:11;;;;;;;7.90;2.95;;;19.30;81.70;;;;;;5046622;28;20064;-63
2022/08/03 07:21:37;;;;;;;9.63;3.70;;;19.40;83.20;;;;;;5046812;28;20029;-63
2022/08/03 07:24:03;;;;;;;7.43;3.00;;;19.40;82.40;;;;;;5051193;28;20028;-63
2022/08/03 07:26:32;;;;;;;11.43;3.00;;;19.50;83.60;;;;;;5050273;28;20492;-63
2022/08/03 07:29:00;;;;;;;11.35;3.58;;;19.60;81.70;;;;;;5030036;28;20082;-63
2022/08/03 07:31:26;;;;;;;8.88;2.88;;;19.60;81.90;;;;;;5030486;28;20028;-63
2022/08/03 07:33:52;;;;;;;10.18;2.78;;;19.70;82.60;;;;;;5039813;28;20029;-63
2022/08/03 07:36:18;;;;;;;10.48;3.22;;;19.70;82.30;;;;;;5045212;28;20082;-63
2022/08/03 07:38:44;;;;;;;7.18;2.92;;;19.80;82.10;;;;;;5045882;28;20021;-63
2022/08/03 07:41:09;;;;;;;7.00;2.67;;;19.90;82.10;;;;;;5045413;28;20140;-62
2022/08/03 07:43:35;;;;;;;8.55;3.10;;;19.90;82.60;;;;;;5043325;28;20092;-62
2022/08/03 07:46:01;;;;;;;9.95;3.00;;;20.00;81.50;;;;;;5029229;28;20812;-62
2022/08/03 07:48:27;;;;;;;9.07;3.30;;;20.10;81.90;;;;;;5042369;28;20034;-62
2022/08/03 07:50:53;;;;;;;8.70;2.72;;;20.10;82.00;;;;;;5025022;28;20024;-62
2022/08/03 07:53:19;;;;;;;8.15;2.88;;;20.20;81.30;;;;;;5048644;28;20025;-62
2022/08/03 07:55:44;;;;;;;8.35;2.70;;;20.30;81.80;;;;;;5046677;28;20024;-62
2022/08/03 07:58:14;;;;;;;5.72;2.50;;;20.40;81.20;;;;;;5045850;28;20531;-62
2022/08/03 08:00:41;;;;;;;9.80;2.88;;;20.40;81.90;;;;;;5045006;28;20456;-62
2022/08/03 08:03:07;;;;;;;10.27;2.75;;;20.50;81.70;;;;;;5045396;28;20032;-62
2022/08/03 08:05:33;;;;;;;8.00;2.78;;;20.50;81.40;;;;;;5044541;28;20021;-62
2022/08/03 08:08:00;;;;;;;11.02;2.75;;;20.70;81.60;;;;;;5043289;28;20053;-62
2022/08/03 08:10:27;;;;;;;12.77;3.30;;;20.70;80.80;;;;;;5043573;28;20033;-62
2022/08/03 08:12:53;;;;;;;9.18;2.70;;;20.80;81.30;;;;;;5046254;28;20028;-62
2022/08/03 08:15:22;;;;;;;8.70;2.50;;;20.90;81.00;;;;;;5045170;28;20799;-62
2022/08/03 08:17:53;;;;;;;11.30;3.30;;;20.90;80.70;;;;;;5045038;28;20086;-63
2022/08/03 08:20:27;;;;;;;10.23;2.60;;;21.00;80.60;;;;;;5043319;28;20083;-62
2022/08/03 08:22:55;;;;;;;8.35;2.88;;;21.10;80.70;;;;;;5047318;28;20031;-62
2022/08/03 08:25:21;;;;;;;9.07;2.45;;;21.10;80.20;;;;;;5042550;28;20035;-62
2022/08/03 08:27:48;;;;;;;7.13;2.70;;;21.20;80.40;;;;;;5054365;28;20036;-62
2022/08/03 08:30:19;;;;;;;8.55;2.58;;;21.30;80.60;;;;;;5056940;28;20024;-63
2022/08/03 08:32:45;;;;;;;6.88;2.50;;;21.40;80.70;;;;;;5057463;28;20032;-62
2022/08/03 08:35:11;;;;;;;9.32;2.72;;;21.50;80.00;;;;;;5057662;28;20037;-62
2022/08/03 08:37:39;;;;;;;7.35;3.00;;;21.60;79.60;;;;;;5057803;28;20108;-62
2022/08/03 08:40:06;;;;;;;10.02;2.70;;;21.60;78.90;;;;;;5057348;28;20484;-62
2022/08/03 08:42:32;;;;;;;6.80;2.35;;;21.70;78.80;;;;;;5057433;28;20071;-62
2022/08/03 08:45:00;;;;;;;8.35;2.22;;;21.70;78.60;;;;;;5057531;28;20032;-62
2022/08/03 08:47:30;;;;;;;5.32;2.33;;;21.70;78.50;;;;;;5057438;28;20021;-62
2022/08/03 08:49:58;;;;;;;8.45;2.40;;;21.80;78.10;;;;;;5057104;28;20036;-62
2022/08/03 08:52:29;;;;;;;7.65;2.53;;;21.90;78.30;;;;;;5056745;28;20045;-63
2022/08/03 08:54:59;;;;;;;6.30;2.30;;;21.90;78.50;;;;;;5056810;28;20033;-63
2022/08/03 08:57:29;;;;;;;10.48;2.30;;;21.90;77.50;;;;;;5055053;28;20036;-63
2022/08/03 08:59:56;;;;;;;6.63;2.20;;;22.00;78.30;;;;;;5056784;28;20033;-62
2022/08/03 09:02:28;;;;;;;16.90;2.65;;;22.10;78.10;;;;;;5057160;28;20036;-63
2022/08/03 09:04:54;;;;;;;8.90;2.15;;;22.20;77.80;;;;;;5057235;28;20029;-63
2022/08/03 09:07:20;;;;;;;6.35;2.10;;;22.20;77.50;;;;;;5055796;28;20083;-62
2022/08/03 09:09:47;;;;;;;6.47;2.30;;;22.30;77.30;;;;;;5054583;28;20025;-62
2022/08/03 09:12:13;;;;;;;5.40;2.03;;;22.40;76.50;;;;;;5052850;28;20029;-62
2022/08/03 09:14:39;;;;;;;6.97;2.13;;;22.40;77.00;;;;;;5052822;28;20029;-62
2022/08/03 09:17:05;;;;;;;4.07;2.17;;;22.50;76.30;;;;;;5055185;28;20036;-62
2022/08/03 09:19:33;;;;;;;5.07;2.13;;;22.60;76.00;;;;;;5055802;28;20033;-62
2022/08/03 09:22:13;;;;;;;7.97;2.33;;;22.70;76.30;;;;;;5056063;28;20025;-62
2022/08/03 09:25:04;;;;;;;4.35;2.03;;;22.80;75.90;;;;;;5056925;28;20436;-62
2022/08/03 09:27:45;;;;;;;5.43;2.47;;;23.00;76.30;;;;;;5057224;28;20013;-62
2022/08/03 09:30:16;;;;;;;10.88;2.75;;;23.10;74.50;;;;;;5057105;28;20028;-62
2022/08/03 09:32:44;;;;;;;5.60;2.25;;;23.30;74.20;;;;;;5057183;28;20072;-62
2022/08/03 09:35:12;;;;;;;8.40;2.50;;;23.50;75.00;;;;;;5057214;28;20024;-62
2022/08/03 09:37:38;;;;;;;4.95;2.72;;;23.60;74.30;;;;;;5056782;28;20416;-62
2022/08/03 09:40:05;;;;;;;5.78;2.47;;;23.80;72.20;;;;;;5039307;28;20033;-62
2022/08/03 09:42:34;;;;;;;5.63;2.72;;;24.00;72.40;;;;;;5056883;28;20029;-62
2022/08/03 09:44:59;;;;;;;5.20;2.42;;;24.30;71.50;;;;;;5039076;28;20029;-62
2022/08/03 09:47:29;;;;;;;7.13;2.88;;;24.50;68.70;;;;;;5056694;28;20023;-62
2022/08/03 09:50:07;;;;;;;9.07;2.55;;;24.70;69.10;;;;;;5057261;28;20032;-62
2022/08/03 09:52:35;;;;;;;6.78;2.70;;;25.00;67.80;;;;;;5056959;28;20021;-62
2022/08/03 09:55:10;;;;;;;7.88;2.85;;;25.20;68.10;;;;;;5057355;28;20094;-62
2022/08/03 09:57:36;;;;;;;5.90;2.55;;;25.60;70.10;;;;;;5056912;28;20047;-63
2022/08/03 10:00:13;;;;;;;4.63;2.17;;;25.90;70.80;;;;;;5056834;28;20025;-63
2022/08/03 10:02:41;;;;;;;6.20;2.17;;;26.40;69.70;;;;;;5041488;28;20511;-64
2022/08/03 10:05:09;;;;;;;5.50;2.42;;;26.60;65.50;;;;;;5060749;28;20059;-63
2022/08/03 10:07:48;;;;;;;6.75;2.50;;;26.80;66.20;;;;;;5060311;28;20045;-63
2022/08/03 10:10:15;;;;;;;5.30;2.40;;;27.10;67.80;;;;;;5060938;28;20017;-63
2022/08/03 10:12:42;;;;;;;6.53;2.47;;;27.50;65.90;;;;;;5060646;28;20112;-63
2022/08/03 10:15:09;;;;;;;5.28;2.30;;;27.80;62.00;;;;;;5060495;28;20029;-63
2022/08/03 10:17:35;;;;;;;5.50;2.08;;;27.90;64.00;;;;;;5060543;28;20036;-63
2022/08/03 10:20:03;;;;;;;3.90;2.30;;;28.30;65.50;;;;;;5060336;28;20029;-63
2022/08/03 10:22:34;;;;;;;8.15;2.60;;;28.80;67.90;;;;;;5060192;28;20025;-63
2022/08/03 10:25:07;;;;;;;8.20;2.30;;;29.30;65.70;;;;;;5060552;28;20021;-63
2022/08/03 10:27:36;;;;;;;5.55;2.08;;;29.80;64.30;;;;;;5060269;28;20478;-64
2022/08/03 10:30:05;;;;;;;4.60;2.20;;;30.20;61.00;;;;;;5060375;28;20036;-63
2022/08/03 10:32:41;;;;;;;6.10;2.28;;;30.60;59.70;;;;;;5059641;28;20020;-64
2022/08/03 10:35:12;;;;;;;6.35;2.00;;;30.90;57.90;;;;;;5060138;28;20033;-63
2022/08/03 10:37:43;;;;;;;7.63;2.30;;;31.20;55.90;;;;;;5058691;28;20025;-63
2022/08/03 10:40:19;;;;;;;7.82;2.50;;;31.40;56.60;;;;;;5056425;28;20026;-64
2022/08/03 10:42:47;;;;;;;8.73;2.42;;;31.30;52.50;;;;;;5047393;28;20037;-64
2022/08/03 10:45:24;;;;;;;9.55;2.75;;;31.20;51.20;;;;;;5047906;28;20021;-64
2022/08/03 10:47:52;;;;;;;5.53;2.47;;;31.20;57.10;;;;;;5044155;28;20018;-64
2022/08/03 10:50:19;;;;;;;9.73;2.95;;;31.40;52.30;;;;;;5002041;28;20022;-64
2022/08/03 10:52:57;;;;;;;6.97;2.90;;;31.60;54.50;;;;;;5037400;28;20040;-64
2022/08/03 10:58:14;;;;;;;10.20;3.53;;;31.30;55.20;;;;;;5039374;28;20456;-63
2022/08/03 11:00:57;;;;;;;7.07;2.92;;;31.40;53.40;;;;;;5039240;28;20033;-63
2022/08/03 11:03:23;;;;;;;10.55;3.00;;;31.60;57.10;;;;;;5039451;28;20045;-64
2022/08/03 11:05:51;;;;;;;7.00;3.90;;;31.70;55.40;;;;;;5039504;28;20033;-65
2022/08/03 11:08:24;;;;;;;7.53;3.50;;;31.70;50.10;;;;;;5037849;28;20044;-65
2022/08/03 11:10:57;;;;;;;7.40;2.95;;;31.60;53.30;;;;;;5039433;28;20021;-65
2022/08/03 11:13:25;;;;;;;9.05;3.60;;;31.60;55.50;;;;;;5037191;28;20029;-65
2022/08/03 11:15:53;;;;;;;9.32;3.33;;;31.70;52.90;;;;;;5046905;28;20032;-65
2022/08/03 11:18:19;;;;;;;8.98;3.30;;;31.90;51.00;;;;;;5047316;28;20036;-65
2022/08/03 11:20:52;;;;;;;9.38;3.70;;;32.10;53.60;;;;;;5038882;28;20040;-65
2022/08/03 11:23:45;;;;;;;8.05;3.40;;;32.40;51.90;;;;;;5038946;28;20034;-65
2022/08/03 11:26:21;;;;;;;7.28;3.10;;;32.60;49.40;;;;;;5039210;28;20045;-65
2022/08/03 11:28:48;;;;;;;12.93;3.60;;;32.80;47.60;;;;;;5038857;28;20449;-66
2022/08/03 11:31:26;;;;;;;8.43;3.53;;;32.90;47.30;;;;;;5021783;28;20036;-65
2022/08/03 11:34:09;;;;;;;9.25;3.20;;;32.90;47.20;;;;;;5039179;28;20036;-65
2022/08/03 11:37:12;;;;;;;7.22;3.38;;;32.90;45.50;;;;;;5039191;28;20057;-65
2022/08/03 11:39:44;;;;;;;9.27;3.75;;;32.70;44.30;;;;;;5038904;28;20496;-66
2022/08/03 11:42:22;;;;;;;12.55;4.22;;;32.80;48.80;;;;;;5038803;28;20396;-65
2022/08/03 11:44:59;;;;;;;11.27;3.83;;;32.50;47.80;;;;;;5038669;28;20032;-66
2022/08/03 11:47:27;;;;;;;11.60;3.88;;;32.20;45.40;;;;;;5038680;28;20025;-66
2022/08/03 11:49:57;;;;;;;11.50;3.80;;;32.00;45.50;;;;;;5038808;28;20029;-66
2022/08/03 11:52:24;;;;;;;9.60;3.25;;;32.10;47.10;;;;;;5038328;28;20025;-66
2022/08/03 11:54:52;;;;;;;9.80;3.55;;;31.90;48.70;;;;;;5038826;28;20029;-66
2022/08/03 11:57:34;;;;;;;11.95;3.92;;;32.20;45.50;;;;;;5038430;28;20022;-66
2022/08/03 12:00:00;;;;;;;11.20;3.80;;;32.50;46.90;;;;;;5038461;28;20029;-66
2022/08/03 12:02:26;;;;;;;11.20;3.97;;;32.20;46.20;;;;;;5038282;28;20057;-67
2022/08/03 12:05:00;;;;;;;15.75;3.85;;;32.00;46.50;;;;;;5038164;28;20100;-67
2022/08/03 12:07:28;;;;;;;11.60;4.00;;;32.20;47.10;;;;;;5038217;28;20045;-67
2022/08/03 12:10:08;;;;;;;10.05;3.53;;;32.40;46.50;;;;;;5038298;28;20430;-67
2022/08/03 12:12:34;;;;;;;10.40;3.50;;;32.40;46.60;;;;;;5037972;28;20037;-68
2022/08/03 12:15:01;;;;;;;12.45;4.43;;;32.20;46.50;;;;;;5038675;28;20025;-67
2022/08/03 12:17:38;;;;;;;10.85;3.40;;;32.50;47.30;;;;;;5038283;28;20041;-68
2022/08/03 12:20:06;;;;;;;8.10;3.80;;;32.50;46.60;;;;;;5020200;28;20070;-68
2022/08/03 12:22:39;;;;;;;10.05;3.53;;;32.80;45.10;;;;;;5037944;28;20065;-67
2022/08/03 12:25:07;;;;;;;10.30;4.07;;;32.70;46.40;;;;;;5037398;28;20041;-68
2022/08/03 12:27:33;;;;;;;9.63;3.50;;;32.70;44.30;;;;;;5038050;28;20033;-68
2022/08/03 12:30:00;;;;;;;12.80;3.78;;;32.80;45.20;;;;;;5037994;28;20025;-67
2022/08/03 12:32:28;;;;;;;11.85;3.55;;;32.50;43.70;;;;;;5037913;28;20033;-68
2022/08/03 12:34:59;;;;;;;9.27;3.67;;;32.20;44.70;;;;;;5037977;28;20060;-68
2022/08/03 12:37:26;;;;;;;11.43;4.13;;;32.20;44.50;;;;;;5037800;28;20029;-68
2022/08/03 12:39:53;;;;;;;11.20;3.58;;;32.00;44.00;;;;;;5037514;28;20076;-68
2022/08/03 12:42:19;;;;;;;11.73;3.92;;;31.80;45.20;;;;;;5032933;28;20037;-66
2022/08/03 12:44:45;;;;;;;12.02;3.72;;;31.70;44.90;;;;;;5023239;28;20026;-66
2022/08/03 12:47:11;;;;;;;16.25;4.13;;;31.40;44.70;;;;;;5017624;28;20036;-66
2022/08/03 12:49:53;;;;;;;11.50;3.67;;;31.20;45.00;;;;;;5017757;28;20021;-66
2022/08/03 12:52:21;;;;;;;16.27;4.10;;;31.50;46.60;;;;;;5017418;28;20485;-66
2022/08/03 12:54:57;;;;;;;13.00;4.05;;;31.60;45.70;;;;;;5017722;28;20104;-66
2022/08/03 12:57:23;;;;;;;9.93;3.50;;;31.70;44.30;;;;;;5017707;28;20018;-66
2022/08/03 12:59:49;;;;;;;11.20;3.70;;;31.70;44.60;;;;;;5017421;28;20032;-66
2022/08/03 13:02:18;;;;;;;14.07;3.72;;;32.00;44.40;;;;;;5017642;28;20030;-66
2022/08/03 13:04:44;;;;;;;11.75;3.72;;;32.00;45.30;;;;;;4999876;28;20022;-66